sensor_id;sensor_type;location;lat;lon;timestamp;P1;durP1;ratioP1;P2;durP2;ratioP2
55290;SDS011;41155;39.768;2.712;2023-03-11T00:00:16;23.75;;;10.52;;
55290;SDS011;41155;39.768;2.712;2023-03-11T00:02:43;24.65;;;12.27;;
55290;SDS011;41155;39.768;2.712;2023-03-11T00:05:11;24.55;;;11.65;;
55290;SDS011;41155;39.768;2.712;2023-03-11T00:07:40;26.10;;;11.43;;
55290;SDS011;41155;39.768;2.712;2023-03-11T00:10:06;26.38;;;9.65;;
55290;SDS011;41155;39.768;2.712;2023-03-11T00:12:32;17.88;;;9.85;;
55290;SDS011;41155;39.768;2.712;2023-03-11T00:14:57;31.25;;;10.77;;
55290;SDS011;41155;39.768;2.712;2023-03-11T00:17:23;18.38;;;10.30;;
55290;SDS011;41155;39.768;2.712;2023-03-11T00:19:48;23.23;;;10.10;;
55290;SDS011;41155;39.768;2.712;2023-03-11T00:22:13;29.50;;;6.95;;
55290;SDS011;41155;39.768;2.712;2023-03-11T00:24:39;16.98;;;6.93;;
55290;SDS011;41155;39.768;2.712;2023-03-11T00:27:04;21.40;;;8.93;;
55290;SDS011;41155;39.768;2.712;2023-03-11T00:29:30;16.75;;;7.47;;
55290;SDS011;41155;39.768;2.712;2023-03-11T00:31:56;17.10;;;8.73;;
55290;SDS011;41155;39.768;2.712;2023-03-11T00:34:21;25.67;;;11.50;;
55290;SDS011;41155;39.768;2.712;2023-03-11T00:36:47;26.23;;;11.15;;
55290;SDS011;41155;39.768;2.712;2023-03-11T00:39:12;19.38;;;10.95;;
55290;SDS011;41155;39.768;2.712;2023-03-11T00:41:39;21.00;;;7.55;;
55290;SDS011;41155;39.768;2.712;2023-03-11T00:44:04;21.13;;;9.65;;
55290;SDS011;41155;39.768;2.712;2023-03-11T00:46:30;23.83;;;9.77;;
55290;SDS011;41155;39.768;2.712;2023-03-11T00:48:55;21.95;;;8.68;;
55290;SDS011;41155;39.768;2.712;2023-03-11T00:51:21;18.77;;;9.38;;
55290;SDS011;41155;39.768;2.712;2023-03-11T00:53:46;27.10;;;9.82;;
55290;SDS011;41155;39.768;2.712;2023-03-11T00:56:13;13.50;;;8.45;;
55290;SDS011;41155;39.768;2.712;2023-03-11T00:58:40;22.23;;;9.07;;
55290;SDS011;41155;39.768;2.712;2023-03-11T01:01:12;14.77;;;7.68;;
55290;SDS011;41155;39.768;2.712;2023-03-11T01:03:39;15.43;;;8.00;;
55290;SDS011;41155;39.768;2.712;2023-03-11T01:06:06;19.77;;;9.15;;
55290;SDS011;41155;39.768;2.712;2023-03-11T01:08:32;22.65;;;9.20;;
55290;SDS011;41155;39.768;2.712;2023-03-11T01:10:57;21.58;;;8.07;;
55290;SDS011;41155;39.768;2.712;2023-03-11T01:13:24;13.75;;;6.97;;
55290;SDS011;41155;39.768;2.712;2023-03-11T01:15:51;15.60;;;6.88;;
55290;SDS011;41155;39.768;2.712;2023-03-11T01:18:18;17.88;;;7.68;;
55290;SDS011;41155;39.768;2.712;2023-03-11T01:20:44;19.73;;;8.27;;
55290;SDS011;41155;39.768;2.712;2023-03-11T01:23:11;15.88;;;9.15;;
55290;SDS011;41155;39.768;2.712;2023-03-11T01:25:37;20.27;;;7.05;;
55290;SDS011;41155;39.768;2.712;2023-03-11T01:28:02;23.85;;;7.65;;
55290;SDS011;41155;39.768;2.712;2023-03-11T01:30:28;18.98;;;6.38;;
55290;SDS011;41155;39.768;2.712;2023-03-11T01:32:54;15.23;;;6.68;;
55290;SDS011;41155;39.768;2.712;2023-03-11T01:35:22;17.75;;;6.70;;
55290;SDS011;41155;39.768;2.712;2023-03-11T01:37:48;21.98;;;7.65;;
55290;SDS011;41155;39.768;2.712;2023-03-11T01:40:18;32.78;;;7.55;;
55290;SDS011;41155;39.768;2.712;2023-03-11T01:42:47;16.13;;;6.95;;
55290;SDS011;41155;39.768;2.712;2023-03-11T01:48:08;18.45;;;6.80;;
55290;SDS011;41155;39.768;2.712;2023-03-11T01:50:39;15.50;;;6.13;;
55290;SDS011;41155;39.768;2.712;2023-03-11T01:53:07;18.83;;;6.70;;
55290;SDS011;41155;39.768;2.712;2023-03-11T01:55:34;13.57;;;5.97;;
55290;SDS011;41155;39.768;2.712;2023-03-11T01:58:00;13.23;;;5.25;;
55290;SDS011;41155;39.768;2.712;2023-03-11T02:00:29;13.48;;;6.18;;
55290;SDS011;41155;39.768;2.712;2023-03-11T02:02:56;18.85;;;7.07;;
55290;SDS011;41155;39.768;2.712;2023-03-11T02:05:24;20.02;;;6.20;;
55290;SDS011;41155;39.768;2.712;2023-03-11T02:07:50;16.60;;;6.80;;
55290;SDS011;41155;39.768;2.712;2023-03-11T02:10:17;17.80;;;6.80;;
55290;SDS011;41155;39.768;2.712;2023-03-11T02:12:43;19.58;;;6.57;;
55290;SDS011;41155;39.768;2.712;2023-03-11T02:15:10;15.30;;;6.97;;
55290;SDS011;41155;39.768;2.712;2023-03-11T02:17:37;19.40;;;8.35;;
55290;SDS011;41155;39.768;2.712;2023-03-11T02:22:42;29.80;;;7.88;;
55290;SDS011;41155;39.768;2.712;2023-03-11T02:28:02;28.40;;;7.45;;
55290;SDS011;41155;39.768;2.712;2023-03-11T02:30:31;21.63;;;7.78;;
55290;SDS011;41155;39.768;2.712;2023-03-11T02:32:58;18.73;;;8.00;;
55290;SDS011;41155;39.768;2.712;2023-03-11T02:35:25;15.45;;;6.15;;
55290;SDS011;41155;39.768;2.712;2023-03-11T02:37:51;14.35;;;6.60;;
55290;SDS011;41155;39.768;2.712;2023-03-11T02:42:55;15.93;;;6.05;;
55290;SDS011;41155;39.768;2.712;2023-03-11T02:45:24;19.60;;;6.55;;
55290;SDS011;41155;39.768;2.712;2023-03-11T02:47:50;22.38;;;7.07;;
55290;SDS011;41155;39.768;2.712;2023-03-11T02:50:19;25.58;;;7.35;;
55290;SDS011;41155;39.768;2.712;2023-03-11T02:52:46;17.10;;;6.85;;
55290;SDS011;41155;39.768;2.712;2023-03-11T02:55:13;15.02;;;5.82;;
55290;SDS011;41155;39.768;2.712;2023-03-11T02:57:40;17.25;;;6.00;;
55290;SDS011;41155;39.768;2.712;2023-03-11T03:00:06;26.80;;;6.70;;
55290;SDS011;41155;39.768;2.712;2023-03-11T03:02:39;14.15;;;6.03;;
55290;SDS011;41155;39.768;2.712;2023-03-11T03:05:05;16.80;;;6.28;;
55290;SDS011;41155;39.768;2.712;2023-03-11T03:07:31;18.73;;;6.93;;
55290;SDS011;41155;39.768;2.712;2023-03-11T03:09:57;19.85;;;6.75;;
55290;SDS011;41155;39.768;2.712;2023-03-11T03:12:23;16.67;;;7.15;;
55290;SDS011;41155;39.768;2.712;2023-03-11T03:14:48;16.83;;;6.60;;
55290;SDS011;41155;39.768;2.712;2023-03-11T03:17:14;16.48;;;6.80;;
55290;SDS011;41155;39.768;2.712;2023-03-11T03:19:39;14.98;;;6.07;;
55290;SDS011;41155;39.768;2.712;2023-03-11T03:22:05;15.73;;;6.78;;
55290;SDS011;41155;39.768;2.712;2023-03-11T03:24:30;16.10;;;6.07;;
55290;SDS011;41155;39.768;2.712;2023-03-11T03:26:56;21.17;;;6.25;;
55290;SDS011;41155;39.768;2.712;2023-03-11T03:29:21;20.98;;;7.15;;
55290;SDS011;41155;39.768;2.712;2023-03-11T03:31:47;19.75;;;7.05;;
55290;SDS011;41155;39.768;2.712;2023-03-11T03:34:13;19.83;;;7.53;;
55290;SDS011;41155;39.768;2.712;2023-03-11T03:36:38;21.95;;;7.72;;
55290;SDS011;41155;39.768;2.712;2023-03-11T03:39:04;17.10;;;6.28;;
55290;SDS011;41155;39.768;2.712;2023-03-11T03:41:30;20.73;;;7.10;;
55290;SDS011;41155;39.768;2.712;2023-03-11T03:43:55;28.13;;;7.22;;
55290;SDS011;41155;39.768;2.712;2023-03-11T03:46:20;18.55;;;6.90;;
55290;SDS011;41155;39.768;2.712;2023-03-11T03:48:46;18.35;;;6.88;;
55290;SDS011;41155;39.768;2.712;2023-03-11T03:51:12;26.90;;;7.32;;
55290;SDS011;41155;39.768;2.712;2023-03-11T03:53:38;23.42;;;7.93;;
55290;SDS011;41155;39.768;2.712;2023-03-11T03:56:09;23.55;;;6.95;;
55290;SDS011;41155;39.768;2.712;2023-03-11T03:58:36;17.83;;;6.15;;
55290;SDS011;41155;39.768;2.712;2023-03-11T04:01:01;29.33;;;7.72;;
55290;SDS011;41155;39.768;2.712;2023-03-11T04:03:28;23.55;;;7.22;;
55290;SDS011;41155;39.768;2.712;2023-03-11T04:05:54;22.60;;;7.93;;
55290;SDS011;41155;39.768;2.712;2023-03-11T04:08:40;18.50;;;7.20;;
55290;SDS011;41155;39.768;2.712;2023-03-11T04:11:05;26.20;;;7.10;;
55290;SDS011;41155;39.768;2.712;2023-03-11T04:13:31;20.00;;;7.25;;
55290;SDS011;41155;39.768;2.712;2023-03-11T04:15:57;24.60;;;7.05;;
55290;SDS011;41155;39.768;2.712;2023-03-11T04:18:22;34.97;;;7.55;;
55290;SDS011;41155;39.768;2.712;2023-03-11T04:20:48;21.33;;;7.05;;
55290;SDS011;41155;39.768;2.712;2023-03-11T04:23:14;16.83;;;6.82;;
55290;SDS011;41155;39.768;2.712;2023-03-11T04:25:39;17.60;;;6.90;;
55290;SDS011;41155;39.768;2.712;2023-03-11T04:28:05;31.20;;;7.97;;
55290;SDS011;41155;39.768;2.712;2023-03-11T04:30:30;16.38;;;6.80;;
55290;SDS011;41155;39.768;2.712;2023-03-11T04:32:56;20.75;;;6.80;;
55290;SDS011;41155;39.768;2.712;2023-03-11T04:35:21;25.55;;;7.85;;
55290;SDS011;41155;39.768;2.712;2023-03-11T04:37:47;23.58;;;7.97;;
55290;SDS011;41155;39.768;2.712;2023-03-11T04:40:12;27.67;;;8.35;;
55290;SDS011;41155;39.768;2.712;2023-03-11T04:42:39;15.82;;;6.80;;
55290;SDS011;41155;39.768;2.712;2023-03-11T04:45:05;18.95;;;7.38;;
55290;SDS011;41155;39.768;2.712;2023-03-11T04:47:31;23.95;;;8.93;;
55290;SDS011;41155;39.768;2.712;2023-03-11T04:49:56;24.40;;;7.40;;
55290;SDS011;41155;39.768;2.712;2023-03-11T04:52:22;22.70;;;7.60;;
55290;SDS011;41155;39.768;2.712;2023-03-11T04:54:47;26.67;;;7.30;;
55290;SDS011;41155;39.768;2.712;2023-03-11T04:57:13;23.42;;;7.72;;
55290;SDS011;41155;39.768;2.712;2023-03-11T04:59:38;22.80;;;7.43;;
55290;SDS011;41155;39.768;2.712;2023-03-11T05:02:04;20.88;;;7.57;;
55290;SDS011;41155;39.768;2.712;2023-03-11T05:04:29;16.77;;;7.70;;
55290;SDS011;41155;39.768;2.712;2023-03-11T05:06:55;17.42;;;6.55;;
55290;SDS011;41155;39.768;2.712;2023-03-11T05:09:20;17.42;;;8.48;;
55290;SDS011;41155;39.768;2.712;2023-03-11T05:11:46;23.05;;;6.85;;
55290;SDS011;41155;39.768;2.712;2023-03-11T05:14:11;18.20;;;6.38;;
55290;SDS011;41155;39.768;2.712;2023-03-11T05:16:37;13.95;;;7.85;;
55290;SDS011;41155;39.768;2.712;2023-03-11T05:19:03;17.25;;;7.03;;
55290;SDS011;41155;39.768;2.712;2023-03-11T05:21:51;18.50;;;7.28;;
55290;SDS011;41155;39.768;2.712;2023-03-11T05:24:16;16.85;;;6.07;;
55290;SDS011;41155;39.768;2.712;2023-03-11T05:26:42;14.10;;;5.47;;
55290;SDS011;41155;39.768;2.712;2023-03-11T05:29:07;12.45;;;6.38;;
55290;SDS011;41155;39.768;2.712;2023-03-11T05:31:33;11.93;;;5.68;;
55290;SDS011;41155;39.768;2.712;2023-03-11T05:33:58;16.10;;;6.25;;
55290;SDS011;41155;39.768;2.712;2023-03-11T05:36:24;14.52;;;6.30;;
55290;SDS011;41155;39.768;2.712;2023-03-11T05:38:49;15.48;;;5.68;;
55290;SDS011;41155;39.768;2.712;2023-03-11T05:41:17;18.00;;;6.72;;
55290;SDS011;41155;39.768;2.712;2023-03-11T05:43:43;17.75;;;5.60;;
55290;SDS011;41155;39.768;2.712;2023-03-11T05:46:08;16.15;;;6.57;;
55290;SDS011;41155;39.768;2.712;2023-03-11T05:48:35;22.70;;;7.72;;
55290;SDS011;41155;39.768;2.712;2023-03-11T05:51:01;21.95;;;7.72;;
55290;SDS011;41155;39.768;2.712;2023-03-11T05:53:33;22.98;;;9.75;;
55290;SDS011;41155;39.768;2.712;2023-03-11T05:55:59;16.23;;;5.90;;
55290;SDS011;41155;39.768;2.712;2023-03-11T05:58:26;17.67;;;6.85;;
55290;SDS011;41155;39.768;2.712;2023-03-11T06:00:52;19.73;;;6.78;;
55290;SDS011;41155;39.768;2.712;2023-03-11T06:03:17;19.77;;;7.32;;
55290;SDS011;41155;39.768;2.712;2023-03-11T06:05:44;20.73;;;7.68;;
55290;SDS011;41155;39.768;2.712;2023-03-11T06:08:13;26.13;;;9.07;;
55290;SDS011;41155;39.768;2.712;2023-03-11T06:10:39;19.08;;;7.03;;
55290;SDS011;41155;39.768;2.712;2023-03-11T06:13:05;22.40;;;7.88;;
55290;SDS011;41155;39.768;2.712;2023-03-11T06:15:34;16.00;;;7.07;;
55290;SDS011;41155;39.768;2.712;2023-03-11T06:18:00;24.63;;;7.45;;
55290;SDS011;41155;39.768;2.712;2023-03-11T06:20:26;18.90;;;7.13;;
55290;SDS011;41155;39.768;2.712;2023-03-11T06:22:52;19.38;;;6.65;;
55290;SDS011;41155;39.768;2.712;2023-03-11T06:25:18;17.92;;;6.78;;
55290;SDS011;41155;39.768;2.712;2023-03-11T06:27:50;21.08;;;7.68;;
55290;SDS011;41155;39.768;2.712;2023-03-11T06:30:17;21.30;;;7.70;;
55290;SDS011;41155;39.768;2.712;2023-03-11T06:32:44;17.83;;;7.53;;
55290;SDS011;41155;39.768;2.712;2023-03-11T06:35:11;16.27;;;7.25;;
55290;SDS011;41155;39.768;2.712;2023-03-11T06:37:36;20.23;;;6.03;;
55290;SDS011;41155;39.768;2.712;2023-03-11T06:40:02;15.65;;;7.05;;
55290;SDS011;41155;39.768;2.712;2023-03-11T06:42:29;16.15;;;7.13;;
55290;SDS011;41155;39.768;2.712;2023-03-11T06:44:55;15.80;;;6.30;;
55290;SDS011;41155;39.768;2.712;2023-03-11T06:47:21;20.75;;;6.25;;
55290;SDS011;41155;39.768;2.712;2023-03-11T06:49:46;14.98;;;5.70;;
55290;SDS011;41155;39.768;2.712;2023-03-11T06:52:11;13.90;;;6.82;;
55290;SDS011;41155;39.768;2.712;2023-03-11T06:54:37;16.50;;;6.78;;
55290;SDS011;41155;39.768;2.712;2023-03-11T06:57:05;18.58;;;6.43;;
55290;SDS011;41155;39.768;2.712;2023-03-11T06:59:32;13.90;;;5.60;;
55290;SDS011;41155;39.768;2.712;2023-03-11T07:01:57;8.90;;;4.88;;
55290;SDS011;41155;39.768;2.712;2023-03-11T07:04:23;14.88;;;5.63;;
55290;SDS011;41155;39.768;2.712;2023-03-11T07:06:48;17.05;;;5.93;;
55290;SDS011;41155;39.768;2.712;2023-03-11T07:09:14;17.55;;;6.32;;
55290;SDS011;41155;39.768;2.712;2023-03-11T07:11:39;10.20;;;5.50;;
55290;SDS011;41155;39.768;2.712;2023-03-11T07:14:05;13.13;;;6.13;;
55290;SDS011;41155;39.768;2.712;2023-03-11T07:16:30;14.18;;;5.05;;
55290;SDS011;41155;39.768;2.712;2023-03-11T07:18:57;11.68;;;5.40;;
55290;SDS011;41155;39.768;2.712;2023-03-11T07:21:25;10.50;;;5.00;;
55290;SDS011;41155;39.768;2.712;2023-03-11T07:23:55;16.00;;;5.50;;
55290;SDS011;41155;39.768;2.712;2023-03-11T07:26:22;20.33;;;5.80;;
55290;SDS011;41155;39.768;2.712;2023-03-11T07:28:49;13.63;;;5.55;;
55290;SDS011;41155;39.768;2.712;2023-03-11T07:31:16;15.55;;;5.65;;
55290;SDS011;41155;39.768;2.712;2023-03-11T07:33:43;16.08;;;5.55;;
55290;SDS011;41155;39.768;2.712;2023-03-11T07:36:10;26.88;;;5.80;;
55290;SDS011;41155;39.768;2.712;2023-03-11T07:38:37;14.63;;;5.18;;
55290;SDS011;41155;39.768;2.712;2023-03-11T07:41:03;18.25;;;6.53;;
55290;SDS011;41155;39.768;2.712;2023-03-11T07:43:29;12.57;;;5.93;;
55290;SDS011;41155;39.768;2.712;2023-03-11T07:46:15;11.23;;;5.03;;
55290;SDS011;41155;39.768;2.712;2023-03-11T07:48:42;9.93;;;4.63;;
55290;SDS011;41155;39.768;2.712;2023-03-11T07:51:10;8.30;;;4.63;;
55290;SDS011;41155;39.768;2.712;2023-03-11T07:53:40;22.35;;;5.43;;
55290;SDS011;41155;39.768;2.712;2023-03-11T07:56:07;22.25;;;5.55;;
55290;SDS011;41155;39.768;2.712;2023-03-11T07:58:34;11.43;;;5.05;;
55290;SDS011;41155;39.768;2.712;2023-03-11T08:01:04;9.10;;;4.28;;
55290;SDS011;41155;39.768;2.712;2023-03-11T08:06:00;30.27;;;5.97;;
55290;SDS011;41155;39.768;2.712;2023-03-11T08:08:26;8.85;;;4.97;;
55290;SDS011;41155;39.768;2.712;2023-03-11T08:10:52;7.18;;;4.32;;
55290;SDS011;41155;39.768;2.712;2023-03-11T08:13:17;10.63;;;4.93;;
55290;SDS011;41155;39.768;2.712;2023-03-11T08:15:43;11.57;;;5.55;;
55290;SDS011;41155;39.768;2.712;2023-03-11T08:18:08;11.07;;;5.65;;
55290;SDS011;41155;39.768;2.712;2023-03-11T08:20:36;9.30;;;5.15;;
55290;SDS011;41155;39.768;2.712;2023-03-11T08:23:02;17.27;;;6.32;;
55290;SDS011;41155;39.768;2.712;2023-03-11T08:25:27;15.75;;;5.93;;
55290;SDS011;41155;39.768;2.712;2023-03-11T08:27:53;15.48;;;6.35;;
55290;SDS011;41155;39.768;2.712;2023-03-11T08:30:19;11.90;;;5.57;;
55290;SDS011;41155;39.768;2.712;2023-03-11T08:32:44;19.70;;;6.38;;
55290;SDS011;41155;39.768;2.712;2023-03-11T08:35:10;11.25;;;5.65;;
55290;SDS011;41155;39.768;2.712;2023-03-11T08:37:35;16.20;;;6.20;;
55290;SDS011;41155;39.768;2.712;2023-03-11T08:40:01;19.33;;;6.40;;
55290;SDS011;41155;39.768;2.712;2023-03-11T08:42:26;15.45;;;6.32;;
55290;SDS011;41155;39.768;2.712;2023-03-11T08:44:52;12.88;;;6.15;;
55290;SDS011;41155;39.768;2.712;2023-03-11T08:47:17;17.38;;;9.43;;
55290;SDS011;41155;39.768;2.712;2023-03-11T08:49:43;18.05;;;9.00;;
55290;SDS011;41155;39.768;2.712;2023-03-11T08:52:08;17.27;;;7.22;;
55290;SDS011;41155;39.768;2.712;2023-03-11T08:54:34;16.25;;;6.05;;
55290;SDS011;41155;39.768;2.712;2023-03-11T08:56:59;24.20;;;6.70;;
55290;SDS011;41155;39.768;2.712;2023-03-11T08:59:27;18.15;;;7.05;;
55290;SDS011;41155;39.768;2.712;2023-03-11T09:01:54;19.17;;;8.07;;
55290;SDS011;41155;39.768;2.712;2023-03-11T09:04:19;13.43;;;6.07;;
55290;SDS011;41155;39.768;2.712;2023-03-11T09:06:45;25.42;;;7.30;;
55290;SDS011;41155;39.768;2.712;2023-03-11T09:09:12;11.77;;;6.00;;
55290;SDS011;41155;39.768;2.712;2023-03-11T09:11:44;23.25;;;7.10;;
55290;SDS011;41155;39.768;2.712;2023-03-11T09:14:11;12.93;;;6.03;;
55290;SDS011;41155;39.768;2.712;2023-03-11T09:16:37;21.15;;;6.63;;
55290;SDS011;41155;39.768;2.712;2023-03-11T09:19:02;12.95;;;5.18;;
55290;SDS011;41155;39.768;2.712;2023-03-11T09:21:31;14.93;;;6.65;;
55290;SDS011;41155;39.768;2.712;2023-03-11T09:23:58;11.52;;;5.38;;
55290;SDS011;41155;39.768;2.712;2023-03-11T09:26:24;14.63;;;5.60;;
55290;SDS011;41155;39.768;2.712;2023-03-11T09:28:50;6.43;;;4.20;;
55290;SDS011;41155;39.768;2.712;2023-03-11T09:31:16;12.20;;;5.78;;
55290;SDS011;41155;39.768;2.712;2023-03-11T09:33:42;13.23;;;5.93;;
55290;SDS011;41155;39.768;2.712;2023-03-11T09:36:12;12.02;;;5.30;;
55290;SDS011;41155;39.768;2.712;2023-03-11T09:38:38;20.80;;;6.65;;
55290;SDS011;41155;39.768;2.712;2023-03-11T09:41:07;17.40;;;6.30;;
55290;SDS011;41155;39.768;2.712;2023-03-11T09:43:45;16.00;;;5.70;;
55290;SDS011;41155;39.768;2.712;2023-03-11T09:51:27;18.27;;;8.10;;
55290;SDS011;41155;39.768;2.712;2023-03-11T09:54:03;12.50;;;5.90;;
55290;SDS011;41155;39.768;2.712;2023-03-11T09:56:34;16.58;;;6.05;;
55290;SDS011;41155;39.768;2.712;2023-03-11T09:59:35;22.42;;;6.82;;
55290;SDS011;41155;39.768;2.712;2023-03-11T10:01:57;11.00;;;5.15;;
55290;SDS011;41155;39.768;2.712;2023-03-11T10:06:52;21.13;;;7.63;;
55290;SDS011;41155;39.768;2.712;2023-03-11T10:20:38;19.92;;;7.38;;
55290;SDS011;41155;39.768;2.712;2023-03-11T10:26:21;23.75;;;7.20;;
55290;SDS011;41155;39.768;2.712;2023-03-11T10:28:57;13.70;;;6.32;;
55290;SDS011;41155;39.768;2.712;2023-03-11T10:31:35;23.25;;;7.57;;
55290;SDS011;41155;39.768;2.712;2023-03-11T10:36:50;14.02;;;7.35;;
55290;SDS011;41155;39.768;2.712;2023-03-11T10:39:22;14.38;;;7.43;;
55290;SDS011;41155;39.768;2.712;2023-03-11T10:41:50;16.02;;;5.93;;
55290;SDS011;41155;39.768;2.712;2023-03-11T10:44:33;20.45;;;5.85;;
55290;SDS011;41155;39.768;2.712;2023-03-11T10:47:01;20.70;;;5.43;;
55290;SDS011;41155;39.768;2.712;2023-03-11T10:49:27;16.10;;;6.40;;
55290;SDS011;41155;39.768;2.712;2023-03-11T10:51:53;23.63;;;7.97;;
55290;SDS011;41155;39.768;2.712;2023-03-11T10:59:51;28.15;;;7.40;;
55290;SDS011;41155;39.768;2.712;2023-03-11T11:02:22;11.38;;;5.85;;
55290;SDS011;41155;39.768;2.712;2023-03-11T11:07:29;29.90;;;8.07;;
55290;SDS011;41155;39.768;2.712;2023-03-11T11:10:19;36.35;;;19.23;;
55290;SDS011;41155;39.768;2.712;2023-03-11T11:15:54;17.98;;;7.45;;
55290;SDS011;41155;39.768;2.712;2023-03-11T11:21:32;25.75;;;8.38;;
55290;SDS011;41155;39.768;2.712;2023-03-11T11:24:17;19.65;;;10.73;;
55290;SDS011;41155;39.768;2.712;2023-03-11T11:27:04;36.95;;;13.65;;
55290;SDS011;41155;39.768;2.712;2023-03-11T11:29:39;32.00;;;10.95;;
55290;SDS011;41155;39.768;2.712;2023-03-11T11:34:39;19.58;;;7.90;;
55290;SDS011;41155;39.768;2.712;2023-03-11T11:37:05;14.25;;;6.60;;
55290;SDS011;41155;39.768;2.712;2023-03-11T11:39:46;14.88;;;6.80;;
55290;SDS011;41155;39.768;2.712;2023-03-11T11:42:16;20.45;;;7.60;;
55290;SDS011;41155;39.768;2.712;2023-03-11T11:44:44;15.27;;;7.60;;
55290;SDS011;41155;39.768;2.712;2023-03-11T11:47:14;15.43;;;6.00;;
55290;SDS011;41155;39.768;2.712;2023-03-11T11:49:47;23.00;;;8.57;;
55290;SDS011;41155;39.768;2.712;2023-03-11T11:52:21;16.90;;;7.60;;
55290;SDS011;41155;39.768;2.712;2023-03-11T11:54:56;19.98;;;7.43;;
55290;SDS011;41155;39.768;2.712;2023-03-11T11:57:45;26.23;;;15.00;;
55290;SDS011;41155;39.768;2.712;2023-03-11T12:00:18;19.48;;;9.50;;
55290;SDS011;41155;39.768;2.712;2023-03-11T12:03:54;18.15;;;6.53;;
55290;SDS011;41155;39.768;2.712;2023-03-11T12:05:59;11.27;;;5.17;;
55290;SDS011;41155;39.768;2.712;2023-03-11T12:11:20;12.98;;;4.72;;
55290;SDS011;41155;39.768;2.712;2023-03-11T12:14:08;18.88;;;6.10;;
55290;SDS011;41155;39.768;2.712;2023-03-11T12:16:56;14.05;;;5.22;;
55290;SDS011;41155;39.768;2.712;2023-03-11T12:19:48;9.45;;;5.13;;
55290;SDS011;41155;39.768;2.712;2023-03-11T12:25:16;9.43;;;4.68;;
55290;SDS011;41155;39.768;2.712;2023-03-11T12:30:40;24.67;;;10.68;;
55290;SDS011;41155;39.768;2.712;2023-03-11T12:33:26;17.05;;;6.80;;
55290;SDS011;41155;39.768;2.712;2023-03-11T12:35:57;20.58;;;6.47;;
55290;SDS011;41155;39.768;2.712;2023-03-11T12:45:59;22.73;;;5.82;;
55290;SDS011;41155;39.768;2.712;2023-03-11T12:50:54;12.85;;;5.05;;
55290;SDS011;41155;39.768;2.712;2023-03-11T12:53:40;9.38;;;4.40;;
55290;SDS011;41155;39.768;2.712;2023-03-11T13:01:52;12.32;;;5.13;;
55290;SDS011;41155;39.768;2.712;2023-03-11T13:04:28;10.55;;;5.25;;
55290;SDS011;41155;39.768;2.712;2023-03-11T13:10:10;14.40;;;5.47;;
55290;SDS011;41155;39.768;2.712;2023-03-11T13:17:54;16.13;;;5.60;;
55290;SDS011;41155;39.768;2.712;2023-03-11T13:29:03;18.27;;;6.13;;
55290;SDS011;41155;39.768;2.712;2023-03-11T13:33:54;15.00;;;6.15;;
55290;SDS011;41155;39.768;2.712;2023-03-11T13:44:55;17.05;;;6.63;;
55290;SDS011;41155;39.768;2.712;2023-03-11T13:47:22;16.10;;;6.22;;
55290;SDS011;41155;39.768;2.712;2023-03-11T13:50:04;15.75;;;6.20;;
55290;SDS011;41155;39.768;2.712;2023-03-11T13:52:35;21.95;;;6.30;;
55290;SDS011;41155;39.768;2.712;2023-03-11T13:55:08;16.15;;;5.47;;
55290;SDS011;41155;39.768;2.712;2023-03-11T13:57:39;16.90;;;5.80;;
55290;SDS011;41155;39.768;2.712;2023-03-11T14:00:15;20.85;;;6.30;;
55290;SDS011;41155;39.768;2.712;2023-03-11T14:02:46;16.60;;;6.00;;
55290;SDS011;41155;39.768;2.712;2023-03-11T14:05:20;14.98;;;5.60;;
55290;SDS011;41155;39.768;2.712;2023-03-11T14:07:49;21.15;;;7.32;;
55290;SDS011;41155;39.768;2.712;2023-03-11T14:13:06;17.02;;;6.28;;
55290;SDS011;41155;39.768;2.712;2023-03-11T14:15:43;11.25;;;4.90;;
55290;SDS011;41155;39.768;2.712;2023-03-11T14:21:13;15.05;;;5.03;;
55290;SDS011;41155;39.768;2.712;2023-03-11T14:23:40;18.75;;;5.93;;
55290;SDS011;41155;39.768;2.712;2023-03-11T14:26:11;17.20;;;5.43;;
55290;SDS011;41155;39.768;2.712;2023-03-11T14:28:43;10.77;;;4.75;;
55290;SDS011;41155;39.768;2.712;2023-03-11T14:31:22;20.10;;;6.93;;
55290;SDS011;41155;39.768;2.712;2023-03-11T14:33:55;20.98;;;6.78;;
55290;SDS011;41155;39.768;2.712;2023-03-11T14:36:38;21.35;;;5.15;;
55290;SDS011;41155;39.768;2.712;2023-03-11T14:39:22;13.10;;;4.70;;
55290;SDS011;41155;39.768;2.712;2023-03-11T14:44:39;20.73;;;4.93;;
55290;SDS011;41155;39.768;2.712;2023-03-11T14:50:17;12.15;;;4.85;;
55290;SDS011;41155;39.768;2.712;2023-03-11T14:52:45;18.88;;;3.97;;
55290;SDS011;41155;39.768;2.712;2023-03-11T14:55:19;10.85;;;4.70;;
55290;SDS011;41155;39.768;2.712;2023-03-11T15:00:21;11.10;;;4.18;;
55290;SDS011;41155;39.768;2.712;2023-03-11T15:05:20;11.73;;;5.00;;
55290;SDS011;41155;39.768;2.712;2023-03-11T15:07:50;6.80;;;3.92;;
55290;SDS011;41155;39.768;2.712;2023-03-11T15:10:23;9.75;;;4.68;;
55290;SDS011;41155;39.768;2.712;2023-03-11T15:12:49;11.30;;;4.25;;
55290;SDS011;41155;39.768;2.712;2023-03-11T15:15:24;10.40;;;3.72;;
55290;SDS011;41155;39.768;2.712;2023-03-11T15:17:56;12.30;;;4.38;;
55290;SDS011;41155;39.768;2.712;2023-03-11T15:20:24;7.20;;;3.58;;
55290;SDS011;41155;39.768;2.712;2023-03-11T15:22:55;5.82;;;2.72;;
55290;SDS011;41155;39.768;2.712;2023-03-11T15:25:25;7.20;;;3.20;;
55290;SDS011;41155;39.768;2.712;2023-03-11T15:27:52;12.80;;;3.80;;
55290;SDS011;41155;39.768;2.712;2023-03-11T15:30:22;9.60;;;3.50;;
55290;SDS011;41155;39.768;2.712;2023-03-11T15:32:55;6.43;;;3.30;;
55290;SDS011;41155;39.768;2.712;2023-03-11T15:35:27;6.43;;;3.67;;
55290;SDS011;41155;39.768;2.712;2023-03-11T15:38:17;6.03;;;2.95;;
55290;SDS011;41155;39.768;2.712;2023-03-11T15:40:54;9.35;;;3.67;;
55290;SDS011;41155;39.768;2.712;2023-03-11T15:43:29;11.38;;;4.63;;
55290;SDS011;41155;39.768;2.712;2023-03-11T15:45:57;17.67;;;5.97;;
55290;SDS011;41155;39.768;2.712;2023-03-11T15:48:25;14.30;;;6.60;;
55290;SDS011;41155;39.768;2.712;2023-03-11T15:50:53;9.82;;;4.07;;
55290;SDS011;41155;39.768;2.712;2023-03-11T15:53:21;7.90;;;4.93;;
55290;SDS011;41155;39.768;2.712;2023-03-11T15:55:49;14.63;;;6.68;;
55290;SDS011;41155;39.768;2.712;2023-03-11T15:58:16;19.17;;;6.43;;
55290;SDS011;41155;39.768;2.712;2023-03-11T16:00:45;9.40;;;5.00;;
55290;SDS011;41155;39.768;2.712;2023-03-11T16:03:15;13.68;;;5.13;;
55290;SDS011;41155;39.768;2.712;2023-03-11T16:05:41;19.63;;;5.18;;
55290;SDS011;41155;39.768;2.712;2023-03-11T16:08:06;16.67;;;4.72;;
55290;SDS011;41155;39.768;2.712;2023-03-11T16:10:32;9.10;;;4.60;;
55290;SDS011;41155;39.768;2.712;2023-03-11T16:12:57;18.08;;;4.20;;
55290;SDS011;41155;39.768;2.712;2023-03-11T16:15:28;11.98;;;4.15;;
55290;SDS011;41155;39.768;2.712;2023-03-11T16:17:56;9.57;;;4.40;;
55290;SDS011;41155;39.768;2.712;2023-03-11T16:20:24;10.18;;;5.25;;
55290;SDS011;41155;39.768;2.712;2023-03-11T16:22:52;13.40;;;5.00;;
55290;SDS011;41155;39.768;2.712;2023-03-11T16:25:22;9.80;;;4.50;;
55290;SDS011;41155;39.768;2.712;2023-03-11T16:27:54;8.35;;;4.30;;
55290;SDS011;41155;39.768;2.712;2023-03-11T16:30:21;17.17;;;4.75;;
55290;SDS011;41155;39.768;2.712;2023-03-11T16:32:48;8.20;;;3.85;;
55290;SDS011;41155;39.768;2.712;2023-03-11T16:35:14;9.93;;;4.43;;
55290;SDS011;41155;39.768;2.712;2023-03-11T16:37:40;6.85;;;3.92;;
55290;SDS011;41155;39.768;2.712;2023-03-11T16:40:10;6.65;;;4.05;;
55290;SDS011;41155;39.768;2.712;2023-03-11T16:45:08;9.82;;;4.43;;
55290;SDS011;41155;39.768;2.712;2023-03-11T16:47:34;9.57;;;4.25;;
55290;SDS011;41155;39.768;2.712;2023-03-11T16:50:00;16.95;;;4.75;;